Carlsbad, Texas
Current Conditions -  °F | °C
As of 10:51 PM on Tuesday 25 Nov 2014 (Local Time) from KSJT Reporting Station
Clear Clear  
Wind Chill: 32°   Ceiling: Unl
Heat Index: 37°   Visibility: 10mi
Dew Point: 22°   Wind: 7mph
Humidity: 54%   Direction: 210°SSW
Pressure: 30.16"   Gusts: NA
Location:  31.61°N, 100.64°W
Report Text: KSJT 260451Z AUTO 21006KT 10SM CLR 03/M06 A3016 RMK AO2 SLP216 T00281056
Loading
Personal Weather Stations






























Interactive Weather Map New forecast layout! Learn more

10-Day Weather Forecast

Advertisements
Track Severe Weather on mobile